x

Isle Of Shoals, Nh (iosn3) Weather Station

6:00pm - Mon 27th Feb 2017 All times are EST. -5 hours from GMT.

  • Wind
    26mph, 29mph gusts
  • Air Temp 50°f
  • Sea Pressure 1024.3mb
  • Isle Of Shoals, Nh
  • Isle Of Shoals, Nh

More Historic Weather Station data

Upgrade to MSW Pro to gain access to the past 30 days of data for over 8000 Wavebouys and Weather Stations around the globe.

Join Pro

Comparision Forecast

View Surf forecast
   
Mon 02/27 6:00pm 26 29 mph 1024.3mb 50f
5:00pm 21 23 mph 1023mb 50f
4:00pm 28 30 mph 1022.7mb 50f
3:00pm 34 38 mph 1022.5mb 49f
2:00pm 24 26 mph 1022.6mb 48f
1:00pm 23 25 mph 1023.3mb 46f
12:00pm 21 22 mph 1024.4mb 45f
11:00am 21 22 mph 1024.8mb 42f
10:00am 25 28 mph 1025mb 39f
9:00am 26 29 mph 1025mb 36f
8:00am 25 26 mph 1024.4mb 33f
7:00am 26 29 mph 1024.1mb 33f
6:00am 26 29 mph 1023.7mb 32f
5:00am 24 29 mph 1023.6mb 33f
4:00am 25 28 mph 1022.9mb 32f
3:00am 20 23 mph 1023mb 33f
2:00am 21 22 mph 1022.7mb 33f
1:00am 20 22 mph 1021.9mb 33f
12:00am 17 20 mph 1021.1mb 33f
Sun 02/26 11:00pm 16 18 mph 1020.5mb 33f
10:00pm 17 21 mph 1019.7mb 34f
9:00pm 16 20 mph 1019mb 34f
8:00pm 23 25 mph 1017.4mb 35f
7:00pm 22 24 mph 1015.9mb 35f
6:00pm 22 24 mph 1014.6mb 36f
5:00pm 28 34 mph 1012.7mb 37f
4:00pm 29 32 mph 1010.9mb 39f
3:00pm 24 30 mph 1009.8mb 40f
2:00pm 28 31 mph 1008.8mb 39f
1:00pm 26 31 mph 1008.1mb 39f
12:00pm 24 28 mph 1007.8mb 38f
11:00am 30 33 mph 1007.2mb 38f
10:00am 28 31 mph 1006.7mb 37f
9:00am 24 29 mph 1006.2mb 37f
8:00am 29 32 mph 1004.9mb 38f
7:00am 29 34 mph 1003.2mb 39f
6:00am 28 30 mph 1002mb 40f
5:00am 23 26 mph 1001.2mb 40f
4:00am 28 34 mph 999.6mb 41f
3:00am 30 33 mph 997.6mb 42f
2:00am 26 29 mph 996.4mb 42f
1:00am 24 26 mph 996.3mb 44f
12:00am 20 22 mph 996.8mb 47f
Sat 02/25 11:00pm 22 23 mph 996.4mb 50f
10:00pm 23 24 mph 996.4mb 46f
9:00pm 24 25 mph 996.4mb 46f
8:00pm 17 18 mph 998.7mb 46f
7:00pm 17
mph
999.5mb 46f
6:00pm 28 29 mph 999.7mb 47f
5:00pm 33 36 mph 999.7mb 49f
4:00pm 28 29 mph 1002.3mb 47f
3:00pm 26 29 mph 1003.6mb 49f
2:00pm 17 18 mph 1005mb 47f
1:00pm 23
mph
1005.6mb 47f
12:00pm 21 22 mph 1007mb 46f
11:00am 16 17 mph 1008.4mb 44f
10:00am 13 14 mph 1009.5mb 43f
9:00am 22 24 mph 1009.9mb 44f
8:00am 25 28 mph 1010mb 44f
7:00am 21 23 mph 1010.1mb 45f
6:00am 23
mph
1009.9mb 51f
5:00am 22 23 mph 1010.1mb 51f
4:00am 22 24 mph 1010.4mb 48f
3:00am 24
mph
1010.4mb 52f
2:00am 20 21 mph 1010.5mb 55f
1:00am 21 22 mph 1010.7mb 55f
12:00am 20 21 mph 1010.5mb 49f
Fri 02/24 11:00pm 25 26 mph 1009.9mb 52f
10:00pm 24
mph
1010.1mb 51f
9:00pm 28
mph
1010.5mb 54f
8:00pm 31 32 mph 1010.6mb 56f
7:00pm 29 30 mph 1010.7mb 54f
6:00pm 25 26 mph 1010.2mb 55f
5:00pm 29 30 mph 1009.7mb 58f
4:00pm 9 17 mph 1009.8mb 53f
3:00pm 5 6 mph 1010.1mb 49f
2:00pm 22 23 mph 1010.5mb 53f
1:00pm 20 21 mph 1011.4mb 55f
12:00pm 17 18 mph 1012.3mb 51f
11:00am 7 8 mph 1012.9mb 49f
10:00am 11 14 mph 1013.2mb 45f
9:00am 6
mph
1012.6mb 53f
8:00am 14
mph
1013.4mb 49f
7:00am 14
mph
1012.7mb 51f
6:00am 18
mph
1012.2mb 52f
5:00am 13
mph
1012.2mb 52f
4:00am 16 18 mph 1011.6mb 53f
3:00am 16
mph
1011.2mb 52f
2:00am 20
mph
1011mb 51f
1:00am 17
mph
1010.7mb 52f